createdAt,value
2023-01-02T00:01:32.906Z,93313.25
2023-01-02T00:04:05.463Z,93294.59
2023-01-02T00:06:39.226Z,93307.16
2023-01-02T00:09:11.692Z,93303.38
2023-01-02T00:11:44.036Z,93305.16
2023-01-02T00:14:16.365Z,93302.00
2023-01-02T00:16:48.779Z,93296.66
2023-01-02T00:19:21.272Z,93288.06
2023-01-02T00:21:54.678Z,93296.31
2023-01-02T00:24:27.029Z,93303.66
2023-01-02T00:26:59.450Z,93295.38
2023-01-02T00:29:31.837Z,93297.16
2023-01-02T00:32:04.671Z,93301.94
2023-01-02T00:34:37.025Z,93295.44
2023-01-02T00:37:10.103Z,93296.22
2023-01-02T00:39:42.435Z,93290.72
2023-01-02T00:42:14.828Z,93287.81
2023-01-02T00:44:47.109Z,93290.16
2023-01-02T00:47:19.492Z,93290.16
2023-01-02T00:49:51.761Z,93285.38
2023-01-02T00:52:24.901Z,93292.75
2023-01-02T00:54:57.232Z,93286.00
2023-01-02T00:57:29.695Z,93291.81
2023-01-02T01:00:02.304Z,93289.09
2023-01-02T01:02:36.112Z,93283.94
2023-01-02T01:05:08.954Z,93285.16
2023-01-02T01:07:42.043Z,93281.22
2023-01-02T01:10:14.477Z,93286.97
2023-01-02T01:12:46.910Z,93282.44
2023-01-02T01:15:19.354Z,93276.28
2023-01-02T01:17:51.790Z,93274.69
2023-01-02T01:20:24.337Z,93266.84
2023-01-02T01:22:57.373Z,93264.03
2023-01-02T01:25:29.682Z,93267.63
2023-01-02T01:28:02.121Z,93269.78
2023-01-02T01:30:34.436Z,93270.78
2023-01-02T01:33:06.833Z,93271.00
2023-01-02T01:35:39.208Z,93265.25
2023-01-02T01:38:12.310Z,93265.84
2023-01-02T01:40:44.629Z,93266.25
2023-01-02T01:43:16.949Z,93263.47
2023-01-02T01:45:49.442Z,93266.72
2023-01-02T01:48:21.856Z,93263.69
2023-01-02T01:50:54.287Z,93258.34
2023-01-02T01:53:27.339Z,93261.56
2023-01-02T01:56:03.956Z,93256.16
2023-01-02T01:58:42.342Z,93255.97
2023-01-02T02:01:17.115Z,93244.59
2023-01-02T02:03:50.828Z,93259.34
2023-01-02T02:06:23.266Z,93254.47
2023-01-02T02:09:01.469Z,93254.25
2023-01-02T02:11:35.361Z,93257.63
2023-01-02T02:14:07.789Z,93258.41
2023-01-02T02:16:49.440Z,93258.63
2023-01-02T02:19:58.873Z,93252.47
2023-01-02T02:23:12.929Z,93249.69
2023-01-02T02:26:23.287Z,93253.91
2023-01-02T02:29:28.581Z,93257.91
2023-01-02T02:32:10.463Z,93252.75
2023-01-02T02:34:48.657Z,93248.41
2023-01-02T02:37:28.656Z,93247.19
2023-01-02T02:40:13.082Z,93240.66
2023-01-02T02:42:59.517Z,93239.66
2023-01-02T02:45:45.376Z,93246.97
2023-01-02T02:48:26.152Z,93243.38
2023-01-02T02:51:05.281Z,93237.44
2023-01-02T02:53:42.743Z,93242.38
2023-01-02T02:56:17.605Z,93240.00
2023-01-02T02:58:50.975Z,93229.72
2023-01-02T03:01:30.664Z,93226.78
2023-01-02T03:04:15.662Z,93229.34
2023-01-02T03:07:04.270Z,93222.44
2023-01-02T03:09:44.651Z,93225.22
2023-01-02T03:12:31.858Z,93224.66
2023-01-02T03:15:14.285Z,93223.91
2023-01-02T03:18:02.414Z,93223.56
2023-01-02T03:20:38.883Z,93210.34
2023-01-02T03:23:18.297Z,93223.00
2023-01-02T03:25:51.757Z,93216.91
2023-01-02T03:28:26.776Z,93228.66
2023-01-02T03:31:02.466Z,93229.44
2023-01-02T03:33:42.544Z,93227.84
2023-01-02T03:36:19.718Z,93225.06
2023-01-02T03:38:58.996Z,93229.94
2023-01-02T03:41:35.715Z,93228.72
2023-01-02T03:44:10.441Z,93234.88
2023-01-02T03:46:48.224Z,93238.00
2023-01-02T03:49:24.587Z,93248.09
2023-01-02T03:51:57.666Z,93246.31
2023-01-02T03:54:30.889Z,93248.91
2023-01-02T03:57:14.071Z,93242.38
2023-01-02T03:59:55.017Z,93225.50
2023-01-02T04:02:34.135Z,93246.94
2023-01-02T04:05:14.524Z,93245.94
2023-01-02T04:07:57.306Z,93247.09
2023-01-02T04:10:30.737Z,93245.72
2023-01-02T04:13:09.646Z,93254.06
2023-01-02T04:15:45.522Z,93258.69
2023-01-02T04:18:23.249Z,93258.91
2023-01-02T04:21:01.621Z,93268.97
2023-01-02T04:23:40.155Z,93267.97
2023-01-02T04:26:18.349Z,93276.91
2023-01-02T04:28:51.309Z,93269.03
2023-01-02T04:31:32.137Z,93276.97
2023-01-02T04:34:09.032Z,93271.59
2023-01-02T04:36:41.750Z,93278.53
2023-01-02T04:39:14.749Z,93282.09
2023-01-02T04:41:47.207Z,93273.38
2023-01-02T04:44:19.534Z,93278.16
2023-01-02T04:46:51.923Z,93284.69
2023-01-02T04:49:26.039Z,93292.59
2023-01-02T04:51:58.419Z,93277.41
2023-01-02T04:54:31.380Z,93280.81
2023-01-02T04:57:04.042Z,93284.97
2023-01-02T04:59:36.344Z,93288.38
2023-01-02T05:02:08.931Z,93283.16
2023-01-02T05:04:41.443Z,93291.88
2023-01-02T05:07:13.807Z,93275.75
2023-01-02T05:09:46.792Z,93287.75
2023-01-02T05:12:19.241Z,93279.22
2023-01-02T05:14:51.619Z,93283.81
2023-01-02T05:17:23.999Z,93280.47
2023-01-02T05:19:56.333Z,93282.22
2023-01-02T05:22:46.638Z,93290.94
2023-01-02T05:25:19.720Z,93285.38
2023-01-02T05:27:53.637Z,93275.50
2023-01-02T05:30:26.047Z,93279.09
2023-01-02T05:32:58.769Z,93283.63
2023-01-02T05:35:33.214Z,93283.63
2023-01-02T05:38:05.930Z,93284.84
2023-01-02T05:40:38.953Z,93281.28
2023-01-02T05:43:11.334Z,93276.34
2023-01-02T05:45:43.726Z,93280.53
2023-01-02T05:48:16.107Z,93277.41
2023-01-02T05:50:48.380Z,93286.13
2023-01-02T05:53:20.771Z,93284.75
2023-01-02T05:55:53.740Z,93285.31
2023-01-02T05:58:26.093Z,93275.41
2023-01-02T06:01:06.446Z,93278.97
2023-01-02T06:03:39.068Z,93283.59
2023-01-02T06:06:11.470Z,93282.38
2023-01-02T06:08:44.068Z,93276.41
2023-01-02T06:11:17.336Z,93275.91
2023-01-02T06:13:49.624Z,93280.50
2023-01-02T06:16:23.486Z,93279.94
2023-01-02T06:18:56.003Z,93284.66
2023-01-02T06:21:28.341Z,93284.06
2023-01-02T06:24:00.768Z,93286.00
2023-01-02T06:26:35.352Z,93298.50
2023-01-02T06:29:08.919Z,93284.44
2023-01-02T06:31:43.539Z,93298.06
2023-01-02T06:34:20.136Z,93305.03
2023-01-02T06:36:52.484Z,93297.09
2023-01-02T06:39:24.875Z,93301.03
2023-01-02T06:41:57.919Z,93293.09
2023-01-02T06:44:30.330Z,93297.22
2023-01-02T06:47:02.664Z,93293.88
2023-01-02T06:49:35.063Z,93299.81
2023-01-02T06:52:07.363Z,93300.41
2023-01-02T06:54:39.801Z,93301.19
2023-01-02T06:57:12.847Z,93303.91
2023-01-02T06:59:45.307Z,93308.22
2023-01-02T07:02:17.678Z,93306.78
2023-01-02T07:04:50.192Z,93307.78
2023-01-02T07:07:22.504Z,93306.00
2023-01-02T07:09:56.490Z,93307.00
2023-01-02T07:12:29.461Z,93315.09
2023-01-02T07:15:02.216Z,93285.47
2023-01-02T07:17:34.580Z,93314.03
2023-01-02T07:20:07.809Z,93307.47
2023-01-02T07:22:40.159Z,93294.75
2023-01-02T07:25:12.533Z,93306.41
2023-01-02T07:27:45.815Z,93299.03
2023-01-02T07:30:18.270Z,93303.13
2023-01-02T07:32:53.080Z,93297.91
2023-01-02T07:35:25.481Z,93298.63
2023-01-02T07:37:57.822Z,93292.38
2023-01-02T07:40:32.254Z,93294.34
2023-01-02T07:43:05.597Z,93294.25
2023-01-02T07:45:38.039Z,93293.72
2023-01-02T07:48:10.483Z,93290.41
2023-01-02T07:50:42.859Z,93291.16
2023-01-02T07:53:15.283Z,93283.44
2023-01-02T07:55:53.162Z,93290.56
2023-01-02T07:58:27.474Z,93293.06
2023-01-02T08:01:06.051Z,93301.50
2023-01-02T08:03:38.883Z,93294.03
2023-01-02T08:06:13.121Z,93288.88
2023-01-02T08:08:45.468Z,93290.44
2023-01-02T08:11:20.330Z,93293.50
2023-01-02T08:13:53.312Z,93289.47
2023-01-02T08:16:25.827Z,93287.78
2023-01-02T08:18:58.145Z,93301.34
2023-01-02T08:21:30.553Z,93292.34
2023-01-02T08:24:03.036Z,93291.84
2023-01-02T08:26:35.403Z,93297.31
2023-01-02T08:29:08.741Z,93292.19
2023-01-02T08:31:43.849Z,93292.56
2023-01-02T08:34:16.936Z,93293.03
2023-01-02T08:36:49.301Z,93297.91
2023-01-02T08:39:21.624Z,93297.16
2023-01-02T08:41:53.993Z,93298.19
2023-01-02T08:44:27.044Z,93297.38
2023-01-02T08:46:59.427Z,93303.06
2023-01-02T08:49:31.828Z,93293.69
2023-01-02T08:52:04.511Z,93289.25
2023-01-02T08:54:36.841Z,93292.28
2023-01-02T08:57:09.248Z,93284.69
2023-01-02T08:59:42.237Z,93292.94
2023-01-02T09:02:15.169Z,93285.06
2023-01-02T09:04:47.659Z,93272.44
2023-01-02T09:07:20.047Z,93285.00
2023-01-02T09:09:52.421Z,93274.72
2023-01-02T09:12:24.859Z,93280.09
2023-01-02T09:14:57.844Z,93273.88
2023-01-02T09:17:30.589Z,93277.38
2023-01-02T09:20:03.453Z,93268.88
2023-01-02T09:22:36.421Z,93267.66
2023-01-02T09:25:09.269Z,93265.63
2023-01-02T09:27:41.694Z,93265.84
2023-01-02T09:30:15.227Z,93257.97
2023-01-02T09:32:48.410Z,93262.22
2023-01-02T09:35:20.728Z,93261.00
2023-01-02T09:37:53.096Z,93255.84
2023-01-02T09:40:26.625Z,93254.59
2023-01-02T09:42:59.844Z,93252.03
2023-01-02T09:45:33.593Z,93243.44
2023-01-02T09:48:06.245Z,93244.72
2023-01-02T09:50:38.925Z,93243.44
2023-01-02T09:53:13.519Z,93234.81
2023-01-02T09:55:54.480Z,93231.16
2023-01-02T09:58:37.073Z,93231.63
2023-01-02T10:01:18.485Z,93236.81
2023-01-02T10:03:59.763Z,93228.72
2023-01-02T10:06:39.594Z,93230.28
2023-01-02T10:09:21.714Z,93209.63
2023-01-02T10:12:03.754Z,93215.84
2023-01-02T10:14:50.702Z,93206.41
2023-01-02T10:17:25.665Z,93208.47
2023-01-02T10:20:01.639Z,93213.69
2023-01-02T10:22:41.486Z,93205.94
2023-01-02T10:25:21.584Z,93199.66
2023-01-02T10:28:02.043Z,93196.03
2023-01-02T10:30:41.304Z,93193.66
2023-01-02T10:33:20.497Z,93199.63
2023-01-02T10:35:56.552Z,93190.34
2023-01-02T10:38:35.107Z,93186.38
2023-01-02T10:41:08.844Z,93175.84
2023-01-02T10:43:41.181Z,93181.94
2023-01-02T10:46:13.598Z,93178.00
2023-01-02T10:48:52.073Z,93177.31
2023-01-02T10:51:26.687Z,93180.47
2023-01-02T10:54:00.862Z,93165.97
2023-01-02T10:56:35.963Z,93175.78
2023-01-02T10:59:20.440Z,93165.09
2023-01-02T11:01:55.512Z,93161.59
2023-01-02T11:04:30.552Z,93156.59
2023-01-02T11:07:03.767Z,93152.53
2023-01-02T11:09:36.149Z,93149.56
2023-01-02T11:12:11.003Z,93129.47
2023-01-02T11:14:43.287Z,93144.31
2023-01-02T11:17:17.401Z,93142.03
2023-01-02T11:19:52.785Z,93140.84
2023-01-02T11:22:35.595Z,93137.16
2023-01-02T11:25:20.378Z,93136.75
2023-01-02T11:27:57.408Z,93135.34
2023-01-02T11:30:35.664Z,93118.81
2023-01-02T11:33:18.805Z,93126.03
2023-01-02T11:35:54.303Z,93121.19
2023-01-02T11:38:39.504Z,93115.38
2023-01-02T11:41:45.485Z,93115.38
2023-01-02T11:44:24.496Z,93119.47
2023-01-02T11:46:58.525Z,93115.31
2023-01-02T11:49:37.721Z,93106.31
2023-01-02T11:52:15.848Z,93108.00
2023-01-02T11:55:02.958Z,93091.63
2023-01-02T11:57:42.408Z,93103.38
2023-01-02T12:00:18.501Z,93103.53
2023-01-02T12:02:52.260Z,93102.38
2023-01-02T12:05:35.598Z,93100.63
2023-01-02T12:08:18.048Z,93096.44
2023-01-02T12:11:04.704Z,93102.97
2023-01-02T12:13:52.760Z,93092.38
2023-01-02T12:16:34.641Z,93091.78
2023-01-02T12:19:23.975Z,93084.28
2023-01-02T12:22:08.079Z,93081.94
2023-01-02T12:24:53.832Z,93086.91
2023-01-02T12:27:34.730Z,93087.78
2023-01-02T12:30:13.346Z,93078.31
2023-01-02T12:33:06.853Z,93073.59
2023-01-02T12:36:24.207Z,93077.19
2023-01-02T12:39:13.133Z,93069.22
2023-01-02T12:42:01.912Z,93074.56
2023-01-02T12:44:56.155Z,93072.41
2023-01-02T12:47:41.935Z,93069.69
2023-01-02T12:50:30.625Z,93066.00
2023-01-02T12:53:19.376Z,93066.69
2023-01-02T12:56:04.779Z,93068.88
2023-01-02T12:58:49.236Z,93066.69
2023-01-02T13:01:28.283Z,93065.75
2023-01-02T13:04:04.711Z,93069.53
2023-01-02T13:06:47.716Z,93065.09
2023-01-02T13:09:26.837Z,93072.78
2023-01-02T13:12:04.495Z,93070.84
2023-01-02T13:14:41.360Z,93067.13
2023-01-02T13:17:33.800Z,93067.41
2023-01-02T13:20:14.378Z,93067.34
2023-01-02T13:22:56.010Z,93065.69
2023-01-02T13:25:30.846Z,93070.97
2023-01-02T13:28:05.264Z,93062.81
2023-01-02T13:30:43.907Z,93069.22
2023-01-02T13:33:27.771Z,93060.47
2023-01-02T13:36:02.673Z,93063.38
2023-01-02T13:38:36.235Z,93065.34
2023-01-02T13:41:14.614Z,93064.47
2023-01-02T13:43:53.262Z,93063.88
2023-01-02T13:47:02.182Z,93062.81
2023-01-02T13:49:22.317Z,93056.84
2023-01-02T13:51:59.432Z,93062.69
2023-01-02T13:54:36.428Z,93055.84
2023-01-02T13:57:17.811Z,93053.91
2023-01-02T13:59:56.927Z,93046.31
2023-01-02T14:02:30.200Z,93050.22
2023-01-02T14:05:41.004Z,93057.91
2023-01-02T14:08:23.966Z,93047.41
2023-01-02T14:10:59.706Z,93057.63
2023-01-02T14:13:36.001Z,93056.06
2023-01-02T14:16:35.314Z,93047.50
2023-01-02T14:19:21.743Z,93054.31
2023-01-02T14:22:05.456Z,93052.28
2023-01-02T14:24:41.028Z,93054.53
2023-01-02T14:27:23.690Z,93051.34
2023-01-02T14:29:59.048Z,93060.69
2023-01-02T14:32:37.741Z,93057.97
2023-01-02T14:35:28.387Z,93062.47
2023-01-02T14:38:11.733Z,93062.16
2023-01-02T14:40:45.707Z,93060.88
2023-01-02T14:43:30.639Z,93063.25
2023-01-02T14:46:10.026Z,93062.25
2023-01-02T14:48:51.545Z,93059.13
2023-01-02T14:51:31.733Z,93055.44
2023-01-02T14:54:13.222Z,93065.69
2023-01-02T14:56:47.964Z,93062.03
2023-01-02T14:59:26.856Z,93056.94
2023-01-02T15:02:04.538Z,93057.13
2023-01-02T15:04:45.105Z,93063.53
2023-01-02T15:07:27.171Z,93061.31
2023-01-02T15:10:03.390Z,93062.25
2023-01-02T15:13:03.374Z,93067.56
2023-01-02T15:15:40.254Z,93061.97
2023-01-02T15:18:20.111Z,93058.72
2023-01-02T15:20:54.395Z,93057.78
2023-01-02T15:23:27.513Z,93067.78
2023-01-02T15:26:31.083Z,93068.91
2023-01-02T15:28:57.865Z,93068.25
2023-01-02T15:31:30.713Z,93062.56
2023-01-02T15:34:03.053Z,93070.44
2023-01-02T15:36:38.082Z,93073.59
2023-01-02T15:39:18.001Z,93073.16
2023-01-02T15:41:54.636Z,93076.53
2023-01-02T15:44:47.752Z,93076.31
2023-01-02T15:47:27.330Z,93076.38
2023-01-02T15:50:04.912Z,93080.81
2023-01-02T15:52:39.229Z,93076.91
2023-01-02T15:55:17.289Z,93081.94
2023-01-02T15:57:52.628Z,93079.84
2023-01-02T16:00:34.777Z,93079.84
2023-01-02T16:03:08.811Z,93081.44
2023-01-02T16:05:48.877Z,93080.13
2023-01-02T16:08:24.216Z,93083.53
2023-01-02T16:11:00.841Z,93078.06
2023-01-02T16:13:59.125Z,93080.91
2023-01-02T16:16:49.395Z,93069.72
2023-01-02T16:19:26.876Z,93086.63
2023-01-02T16:22:07.889Z,93082.94
2023-01-02T16:24:44.642Z,93078.78
2023-01-02T16:27:25.111Z,93078.00
2023-01-02T16:29:58.015Z,93081.63
2023-01-02T16:32:32.218Z,93078.25
2023-01-02T16:35:19.486Z,93076.91
2023-01-02T16:37:57.275Z,93079.47
2023-01-02T16:41:00.350Z,93075.81
2023-01-02T16:43:42.817Z,93085.38
2023-01-02T16:46:15.925Z,93080.94
2023-01-02T16:48:48.352Z,93084.31
2023-01-02T16:51:20.834Z,93080.38
2023-01-02T16:53:53.170Z,93079.28
2023-01-02T16:56:25.573Z,93079.78
2023-01-02T16:58:59.497Z,93082.09
2023-01-02T17:01:32.004Z,93080.75
2023-01-02T17:04:04.607Z,93085.66
2023-01-02T17:06:36.991Z,93083.00
2023-01-02T17:09:09.311Z,93082.19
2023-01-02T17:11:59.427Z,93084.75
2023-01-02T17:14:33.353Z,93080.56
2023-01-02T17:17:05.812Z,93086.25
2023-01-02T17:19:38.208Z,93086.75
2023-01-02T17:22:10.643Z,93086.41
2023-01-02T17:24:42.950Z,93092.88
2023-01-02T17:27:15.517Z,93082.22
2023-01-02T17:29:48.529Z,93085.03
2023-01-02T17:32:21.020Z,93078.50
2023-01-02T17:34:53.351Z,93081.56
2023-01-02T17:37:25.784Z,93085.66
2023-01-02T17:39:58.812Z,93091.31
2023-01-02T17:42:31.391Z,93091.78
2023-01-02T17:45:05.469Z,93087.56
2023-01-02T17:50:31.782Z,93089.88
2023-01-02T17:53:04.164Z,93086.44
2023-01-02T17:55:36.522Z,93079.41
2023-01-02T17:58:08.965Z,93085.06
2023-01-02T18:00:43.563Z,93081.41
2023-01-02T18:03:16.038Z,93089.13
2023-01-02T18:05:50.583Z,93096.59
2023-01-02T18:08:25.687Z,93093.16
2023-01-02T18:10:57.999Z,93094.13
2023-01-02T18:13:32.875Z,93091.72
2023-01-02T18:16:13.679Z,93095.81
2023-01-02T18:18:46.382Z,93094.25
2023-01-02T18:21:21.292Z,93090.81
2023-01-02T18:23:57.145Z,93101.41
2023-01-02T18:26:30.645Z,93090.44
2023-01-02T18:29:10.071Z,93097.13
2023-01-02T18:31:46.413Z,93093.22
2023-01-02T18:34:47.120Z,93097.84
2023-01-02T18:37:19.364Z,93092.00
2023-01-02T18:39:51.933Z,93077.59
2023-01-02T18:42:26.969Z,93094.75
2023-01-02T18:45:00.073Z,93090.00
2023-01-02T18:47:36.653Z,93087.63
2023-01-02T18:50:30.966Z,93086.50
2023-01-02T18:53:15.517Z,93090.16
2023-01-02T18:55:50.128Z,93092.75
2023-01-02T18:58:36.000Z,93100.19
2023-01-02T19:01:22.649Z,93100.91
2023-01-02T19:04:22.092Z,93100.84
2023-01-02T19:07:17.880Z,93086.81
2023-01-02T19:09:50.282Z,93096.16
2023-01-02T19:12:43.596Z,93075.38
2023-01-02T19:15:42.150Z,93099.13
2023-01-02T19:18:23.689Z,93099.22
2023-01-02T19:21:03.335Z,93094.72
2023-01-02T19:23:42.947Z,93092.63
2023-01-02T19:26:23.499Z,93089.16
2023-01-02T19:29:00.107Z,93094.59
2023-01-02T19:31:41.465Z,93084.72
2023-01-02T19:34:27.131Z,93087.00
2023-01-02T19:37:23.889Z,93095.84
2023-01-02T19:39:58.390Z,93078.34
2023-01-02T19:42:31.614Z,93078.03
2023-01-02T19:45:06.844Z,93093.41
2023-01-02T19:47:39.616Z,93077.28
2023-01-02T19:50:14.310Z,93088.47
2023-01-02T19:52:47.741Z,93090.28
2023-01-02T19:55:20.161Z,93083.22
2023-01-02T19:57:52.560Z,93085.34
2023-01-02T20:00:24.880Z,93094.81
2023-01-02T20:02:57.364Z,93093.81
2023-01-02T20:05:30.185Z,93091.69
2023-01-02T20:08:03.329Z,93086.41
2023-01-02T20:10:35.934Z,93087.91
2023-01-02T20:13:08.344Z,93087.25
2023-01-02T20:15:40.712Z,93083.66
2023-01-02T20:18:17.216Z,93080.84
2023-01-02T20:20:49.589Z,93083.13
2023-01-02T20:23:22.659Z,93077.63
2023-01-02T20:25:55.012Z,93082.78
2023-01-02T20:28:27.392Z,93078.56
2023-01-02T20:30:59.857Z,93079.00
2023-01-02T20:33:32.738Z,93071.50
2023-01-02T20:36:11.352Z,93073.84
2023-01-02T20:38:46.396Z,93075.34
2023-01-02T20:41:18.874Z,93073.22
2023-01-02T20:43:51.243Z,93079.41
2023-01-02T20:46:23.696Z,93072.19
2023-01-02T20:48:56.152Z,93073.13
2023-01-02T20:51:29.529Z,93077.97
2023-01-02T20:54:03.690Z,93077.75
2023-01-02T20:56:36.060Z,93081.78
2023-01-02T20:59:08.456Z,93080.44
2023-01-02T21:01:41.794Z,93080.72
2023-01-02T21:04:18.652Z,93081.16
2023-01-02T21:06:53.116Z,93072.59
2023-01-02T21:09:26.216Z,93076.78
2023-01-02T21:11:58.581Z,93070.81
2023-01-02T21:14:37.115Z,93076.22
2023-01-02T21:17:09.793Z,93076.22
2023-01-02T21:19:42.160Z,93077.13
2023-01-02T21:22:14.475Z,93083.09
2023-01-02T21:24:47.561Z,93074.00
2023-01-02T21:27:19.946Z,93073.69
2023-01-02T21:29:52.335Z,93067.41
2023-01-02T21:32:24.683Z,93077.50
2023-01-02T21:34:57.057Z,93075.94
2023-01-02T21:37:29.418Z,93071.00
2023-01-02T21:40:04.998Z,93069.19
2023-01-02T21:42:44.497Z,93068.09
2023-01-02T21:45:17.552Z,93073.47
2023-01-02T21:47:50.143Z,93081.00
2023-01-02T21:50:23.175Z,93069.44
2023-01-02T21:52:55.513Z,93066.53
2023-01-02T21:55:28.522Z,93064.19
2023-01-02T21:58:16.329Z,93068.31
2023-01-02T22:00:50.924Z,93061.94
2023-01-02T22:03:23.403Z,93059.59
2023-01-02T22:05:55.899Z,93063.19
2023-01-02T22:08:28.188Z,93064.41
2023-01-02T22:11:16.124Z,93058.16
2023-01-02T22:13:48.466Z,93061.28
2023-01-02T22:16:20.913Z,93054.34
2023-01-02T22:18:53.253Z,93053.53
2023-01-02T22:21:25.665Z,93054.34
2023-01-02T22:23:58.162Z,93050.41
2023-01-02T22:26:31.748Z,93036.06
2023-01-02T22:29:04.966Z,93048.19
2023-01-02T22:31:37.812Z,93041.88
2023-01-02T22:34:10.668Z,93037.72
2023-01-02T22:36:43.098Z,93036.94
2023-01-02T22:39:27.978Z,93041.22
2023-01-02T22:42:49.325Z,93045.91
2023-01-02T22:45:18.734Z,93037.09
2023-01-02T22:47:51.592Z,93034.50
2023-01-02T22:50:26.664Z,93033.94
2023-01-02T22:52:59.967Z,93030.47
2023-01-02T22:55:32.793Z,93025.88
2023-01-02T22:58:06.187Z,93021.03
2023-01-02T23:00:38.960Z,93020.59
2023-01-02T23:03:12.993Z,93017.69
2023-01-02T23:05:45.360Z,93020.59
2023-01-02T23:08:18.701Z,93013.06
2023-01-02T23:10:51.065Z,93010.72
2023-01-02T23:13:24.328Z,93010.97
2023-01-02T23:16:14.996Z,93007.34
2023-01-02T23:19:05.893Z,93008.59
2023-01-02T23:21:39.545Z,93004.47
2023-01-02T23:24:13.499Z,93008.50
2023-01-02T23:26:49.823Z,93011.63
2023-01-02T23:29:24.956Z,93007.63
2023-01-02T23:31:57.397Z,92985.44
2023-01-02T23:34:30.156Z,93003.72
2023-01-02T23:37:03.018Z,93002.59
2023-01-02T23:39:35.379Z,92997.19
2023-01-02T23:42:07.700Z,93001.34
2023-01-02T23:44:41.306Z,93003.38
2023-01-02T23:47:18.885Z,93001.34
2023-01-02T23:49:51.876Z,93003.94
2023-01-02T23:52:24.181Z,93003.47
2023-01-02T23:54:56.574Z,92998.53
2023-01-02T23:57:28.879Z,92999.22
